sensor_id;sensor_type;location;lat;lon;timestamp;temperature;humidity
38938;DHT22;24727;51.974;20.868;2022-07-18T00:01:03;13.10;1.00
38938;DHT22;24727;51.974;20.868;2022-07-18T00:03:29;13.00;1.00
38938;DHT22;24727;51.974;20.868;2022-07-18T00:05:55;13.00;1.00
38938;DHT22;24727;51.974;20.868;2022-07-18T00:08:22;13.00;1.00
38938;DHT22;24727;51.974;20.868;2022-07-18T00:10:48;12.90;1.00
38938;DHT22;24727;51.974;20.868;2022-07-18T00:13:13;12.90;1.00
38938;DHT22;24727;51.974;20.868;2022-07-18T00:15:39;12.90;1.00
38938;DHT22;24727;51.974;20.868;2022-07-18T00:18:05;12.90;1.00
38938;DHT22;24727;51.974;20.868;2022-07-18T00:20:31;12.80;1.00
38938;DHT22;24727;51.974;20.868;2022-07-18T00:23:00;12.70;1.00
38938;DHT22;24727;51.974;20.868;2022-07-18T00:25:26;12.70;1.00
38938;DHT22;24727;51.974;20.868;2022-07-18T00:27:53;12.70;1.00
38938;DHT22;24727;51.974;20.868;2022-07-18T00:30:20;12.60;1.00
38938;DHT22;24727;51.974;20.868;2022-07-18T00:32:46;12.60;1.00
38938;DHT22;24727;51.974;20.868;2022-07-18T00:35:12;12.60;1.00
38938;DHT22;24727;51.974;20.868;2022-07-18T00:37:38;12.50;1.00
38938;DHT22;24727;51.974;20.868;2022-07-18T00:40:05;12.50;1.00
38938;DHT22;24727;51.974;20.868;2022-07-18T00:42:31;12.60;1.00
38938;DHT22;24727;51.974;20.868;2022-07-18T00:44:57;12.50;1.00
38938;DHT22;24727;51.974;20.868;2022-07-18T00:47:23;12.50;1.00
38938;DHT22;24727;51.974;20.868;2022-07-18T00:49:49;12.50;1.00
38938;DHT22;24727;51.974;20.868;2022-07-18T00:52:17;12.50;1.00
38938;DHT22;24727;51.974;20.868;2022-07-18T00:54:45;12.50;1.00
38938;DHT22;24727;51.974;20.868;2022-07-18T00:57:12;12.50;1.00
38938;DHT22;24727;51.974;20.868;2022-07-18T00:59:40;12.40;1.00
38938;DHT22;24727;51.974;20.868;2022-07-18T01:02:24;12.40;1.00
38938;DHT22;24727;51.974;20.868;2022-07-18T01:04:52;12.40;1.00
38938;DHT22;24727;51.974;20.868;2022-07-18T01:07:20;12.40;1.00
38938;DHT22;24727;51.974;20.868;2022-07-18T01:09:52;12.40;1.00
38938;DHT22;24727;51.974;20.868;2022-07-18T01:12:19;12.30;1.00
38938;DHT22;24727;51.974;20.868;2022-07-18T01:14:46;12.30;1.00
38938;DHT22;24727;51.974;20.868;2022-07-18T01:17:17;12.30;1.00
38938;DHT22;24727;51.974;20.868;2022-07-18T01:19:47;12.30;1.00
38938;DHT22;24727;51.974;20.868;2022-07-18T01:22:17;12.30;1.00
38938;DHT22;24727;51.974;20.868;2022-07-18T01:24:45;12.30;1.00
38938;DHT22;24727;51.974;20.868;2022-07-18T01:27:19;12.30;1.00
38938;DHT22;24727;51.974;20.868;2022-07-18T01:29:47;12.30;1.00
38938;DHT22;24727;51.974;20.868;2022-07-18T01:32:14;12.20;1.00
38938;DHT22;24727;51.974;20.868;2022-07-18T01:34:40;12.20;1.00
38938;DHT22;24727;51.974;20.868;2022-07-18T01:37:07;12.20;1.00
38938;DHT22;24727;51.974;20.868;2022-07-18T01:39:35;12.20;1.00
38938;DHT22;24727;51.974;20.868;2022-07-18T01:42:06;12.30;1.00
38938;DHT22;24727;51.974;20.868;2022-07-18T01:44:34;12.30;1.00
38938;DHT22;24727;51.974;20.868;2022-07-18T01:47:01;12.40;1.00
38938;DHT22;24727;51.974;20.868;2022-07-18T01:49:29;12.40;1.00
38938;DHT22;24727;51.974;20.868;2022-07-18T01:51:58;12.40;1.00
38938;DHT22;24727;51.974;20.868;2022-07-18T01:54:26;12.30;1.00
38938;DHT22;24727;51.974;20.868;2022-07-18T01:56:53;12.40;1.00
38938;DHT22;24727;51.974;20.868;2022-07-18T01:59:19;12.40;1.00
38938;DHT22;24727;51.974;20.868;2022-07-18T02:01:46;12.40;1.00
38938;DHT22;24727;51.974;20.868;2022-07-18T02:04:12;12.40;1.00
38938;DHT22;24727;51.974;20.868;2022-07-18T02:06:38;12.40;1.00
38938;DHT22;24727;51.974;20.868;2022-07-18T02:09:06;12.30;1.00
38938;DHT22;24727;51.974;20.868;2022-07-18T02:11:33;12.30;1.00
38938;DHT22;24727;51.974;20.868;2022-07-18T02:14:01;12.30;1.00
38938;DHT22;24727;51.974;20.868;2022-07-18T02:16:27;12.20;1.00
38938;DHT22;24727;51.974;20.868;2022-07-18T02:18:55;12.10;1.00
38938;DHT22;24727;51.974;20.868;2022-07-18T02:21:21;12.10;1.00
38938;DHT22;24727;51.974;20.868;2022-07-18T02:23:47;12.10;1.00
38938;DHT22;24727;51.974;20.868;2022-07-18T02:26:15;12.00;1.00
38938;DHT22;24727;51.974;20.868;2022-07-18T02:28:40;12.00;1.00
38938;DHT22;24727;51.974;20.868;2022-07-18T02:31:06;12.00;1.00
38938;DHT22;24727;51.974;20.868;2022-07-18T02:33:33;11.90;1.00
38938;DHT22;24727;51.974;20.868;2022-07-18T02:36:00;11.90;1.00
38938;DHT22;24727;51.974;20.868;2022-07-18T02:38:26;11.90;1.00
38938;DHT22;24727;51.974;20.868;2022-07-18T02:40:53;11.90;1.00
38938;DHT22;24727;51.974;20.868;2022-07-18T02:43:19;11.90;1.00
38938;DHT22;24727;51.974;20.868;2022-07-18T02:45:44;12.00;1.00
38938;DHT22;24727;51.974;20.868;2022-07-18T02:48:10;12.00;1.00
38938;DHT22;24727;51.974;20.868;2022-07-18T02:50:36;12.00;1.00
38938;DHT22;24727;51.974;20.868;2022-07-18T02:53:03;12.10;1.00
38938;DHT22;24727;51.974;20.868;2022-07-18T02:55:29;12.10;1.00
38938;DHT22;24727;51.974;20.868;2022-07-18T02:57:55;12.10;1.00
38938;DHT22;24727;51.974;20.868;2022-07-18T03:00:20;12.10;1.00
38938;DHT22;24727;51.974;20.868;2022-07-18T03:02:46;12.10;1.00
38938;DHT22;24727;51.974;20.868;2022-07-18T03:05:13;12.10;1.00
38938;DHT22;24727;51.974;20.868;2022-07-18T03:07:41;12.10;1.00
38938;DHT22;24727;51.974;20.868;2022-07-18T03:10:19;12.10;1.00
38938;DHT22;24727;51.974;20.868;2022-07-18T03:12:45;12.20;1.00
38938;DHT22;24727;51.974;20.868;2022-07-18T03:15:11;12.20;1.00
38938;DHT22;24727;51.974;20.868;2022-07-18T03:17:43;12.10;1.00
38938;DHT22;24727;51.974;20.868;2022-07-18T03:20:10;12.20;1.00
38938;DHT22;24727;51.974;20.868;2022-07-18T03:22:36;12.20;1.00
38938;DHT22;24727;51.974;20.868;2022-07-18T03:25:03;12.30;1.00
38938;DHT22;24727;51.974;20.868;2022-07-18T03:27:29;12.30;1.00
38938;DHT22;24727;51.974;20.868;2022-07-18T03:29:55;12.40;1.00
38938;DHT22;24727;51.974;20.868;2022-07-18T03:32:21;12.40;1.00
38938;DHT22;24727;51.974;20.868;2022-07-18T03:34:47;12.40;1.00
38938;DHT22;24727;51.974;20.868;2022-07-18T03:37:13;12.50;1.00
38938;DHT22;24727;51.974;20.868;2022-07-18T03:39:39;12.50;1.00
38938;DHT22;24727;51.974;20.868;2022-07-18T03:42:05;12.50;1.00
38938;DHT22;24727;51.974;20.868;2022-07-18T03:44:31;12.60;1.00
38938;DHT22;24727;51.974;20.868;2022-07-18T03:46:56;12.70;1.00
38938;DHT22;24727;51.974;20.868;2022-07-18T03:49:23;12.80;1.00
38938;DHT22;24727;51.974;20.868;2022-07-18T03:51:49;12.80;1.00
38938;DHT22;24727;51.974;20.868;2022-07-18T03:54:16;12.90;1.00
38938;DHT22;24727;51.974;20.868;2022-07-18T03:56:43;12.90;1.00
38938;DHT22;24727;51.974;20.868;2022-07-18T03:59:09;12.90;1.00
38938;DHT22;24727;51.974;20.868;2022-07-18T04:01:35;12.90;1.00
38938;DHT22;24727;51.974;20.868;2022-07-18T04:04:01;13.00;1.00
38938;DHT22;24727;51.974;20.868;2022-07-18T04:06:28;13.10;1.00
38938;DHT22;24727;51.974;20.868;2022-07-18T04:08:55;13.10;1.00
38938;DHT22;24727;51.974;20.868;2022-07-18T04:11:24;13.20;1.00
38938;DHT22;24727;51.974;20.868;2022-07-18T04:13:55;13.20;1.00
38938;DHT22;24727;51.974;20.868;2022-07-18T04:16:21;13.20;1.00
38938;DHT22;24727;51.974;20.868;2022-07-18T04:18:48;13.20;1.00
38938;DHT22;24727;51.974;20.868;2022-07-18T04:21:15;13.20;1.00
38938;DHT22;24727;51.974;20.868;2022-07-18T04:23:43;13.30;1.00
38938;DHT22;24727;51.974;20.868;2022-07-18T04:26:09;13.30;1.00
38938;DHT22;24727;51.974;20.868;2022-07-18T04:28:36;13.30;1.00
38938;DHT22;24727;51.974;20.868;2022-07-18T04:31:02;13.30;1.00
38938;DHT22;24727;51.974;20.868;2022-07-18T04:33:28;13.30;1.00
38938;DHT22;24727;51.974;20.868;2022-07-18T04:35:54;13.30;1.00
38938;DHT22;24727;51.974;20.868;2022-07-18T04:38:20;13.40;1.00
38938;DHT22;24727;51.974;20.868;2022-07-18T04:40:46;13.50;1.00
38938;DHT22;24727;51.974;20.868;2022-07-18T04:43:12;13.60;1.00
38938;DHT22;24727;51.974;20.868;2022-07-18T04:45:38;13.70;1.00
38938;DHT22;24727;51.974;20.868;2022-07-18T04:48:05;13.70;1.00
38938;DHT22;24727;51.974;20.868;2022-07-18T04:50:32;13.80;1.00
38938;DHT22;24727;51.974;20.868;2022-07-18T04:52:58;13.90;1.00
38938;DHT22;24727;51.974;20.868;2022-07-18T04:55:32;14.00;1.00
38938;DHT22;24727;51.974;20.868;2022-07-18T04:57:57;14.20;1.00
38938;DHT22;24727;51.974;20.868;2022-07-18T05:00:25;14.40;1.00
38938;DHT22;24727;51.974;20.868;2022-07-18T05:02:53;14.60;1.00
38938;DHT22;24727;51.974;20.868;2022-07-18T05:05:20;14.70;1.00
38938;DHT22;24727;51.974;20.868;2022-07-18T05:07:47;14.80;1.00
38938;DHT22;24727;51.974;20.868;2022-07-18T05:10:15;15.00;1.00
38938;DHT22;24727;51.974;20.868;2022-07-18T05:12:44;15.10;1.00
38938;DHT22;24727;51.974;20.868;2022-07-18T05:15:12;15.20;1.00
38938;DHT22;24727;51.974;20.868;2022-07-18T05:17:39;15.30;1.00
38938;DHT22;24727;51.974;20.868;2022-07-18T05:20:08;15.20;1.00
38938;DHT22;24727;51.974;20.868;2022-07-18T05:22:35;15.20;1.00
38938;DHT22;24727;51.974;20.868;2022-07-18T05:25:04;15.30;1.00
38938;DHT22;24727;51.974;20.868;2022-07-18T05:27:31;15.40;1.00
38938;DHT22;24727;51.974;20.868;2022-07-18T05:29:57;15.60;1.00
38938;DHT22;24727;51.974;20.868;2022-07-18T05:32:26;15.70;1.00
38938;DHT22;24727;51.974;20.868;2022-07-18T05:34:53;15.70;1.00
38938;DHT22;24727;51.974;20.868;2022-07-18T05:37:26;15.70;1.00
38938;DHT22;24727;51.974;20.868;2022-07-18T05:39:52;15.80;1.00
38938;DHT22;24727;51.974;20.868;2022-07-18T05:42:18;16.10;1.00
38938;DHT22;24727;51.974;20.868;2022-07-18T05:44:44;16.10;1.00
38938;DHT22;24727;51.974;20.868;2022-07-18T05:47:10;16.10;1.00
38938;DHT22;24727;51.974;20.868;2022-07-18T05:49:36;16.10;1.00
38938;DHT22;24727;51.974;20.868;2022-07-18T05:52:02;16.10;1.00
38938;DHT22;24727;51.974;20.868;2022-07-18T05:54:28;16.10;1.00
38938;DHT22;24727;51.974;20.868;2022-07-18T05:56:58;16.20;1.00
38938;DHT22;24727;51.974;20.868;2022-07-18T05:59:25;16.30;1.00
38938;DHT22;24727;51.974;20.868;2022-07-18T06:01:51;16.50;1.00
38938;DHT22;24727;51.974;20.868;2022-07-18T06:04:18;16.50;1.00
38938;DHT22;24727;51.974;20.868;2022-07-18T06:06:44;16.60;1.00
38938;DHT22;24727;51.974;20.868;2022-07-18T06:09:10;16.70;1.00
38938;DHT22;24727;51.974;20.868;2022-07-18T06:11:36;16.90;1.00
38938;DHT22;24727;51.974;20.868;2022-07-18T06:14:04;16.90;1.00
38938;DHT22;24727;51.974;20.868;2022-07-18T06:16:31;17.00;1.00
38938;DHT22;24727;51.974;20.868;2022-07-18T06:18:58;17.20;1.00
38938;DHT22;24727;51.974;20.868;2022-07-18T06:21:25;17.20;1.00
38938;DHT22;24727;51.974;20.868;2022-07-18T06:23:53;17.30;1.00
38938;DHT22;24727;51.974;20.868;2022-07-18T06:26:21;17.30;1.00
38938;DHT22;24727;51.974;20.868;2022-07-18T06:28:47;17.40;1.00
38938;DHT22;24727;51.974;20.868;2022-07-18T06:31:13;17.30;1.00
38938;DHT22;24727;51.974;20.868;2022-07-18T06:33:43;17.30;1.00
38938;DHT22;24727;51.974;20.868;2022-07-18T06:36:11;17.50;1.00
38938;DHT22;24727;51.974;20.868;2022-07-18T06:38:38;17.70;1.00
38938;DHT22;24727;51.974;20.868;2022-07-18T06:41:06;17.60;1.00
38938;DHT22;24727;51.974;20.868;2022-07-18T06:43:38;17.60;1.00
38938;DHT22;24727;51.974;20.868;2022-07-18T06:46:04;17.70;1.00
38938;DHT22;24727;51.974;20.868;2022-07-18T06:48:30;17.70;1.00
38938;DHT22;24727;51.974;20.868;2022-07-18T06:51:00;17.80;1.00
38938;DHT22;24727;51.974;20.868;2022-07-18T06:53:28;17.80;1.00
38938;DHT22;24727;51.974;20.868;2022-07-18T06:55:54;18.00;1.00
38938;DHT22;24727;51.974;20.868;2022-07-18T06:58:21;18.10;1.00
38938;DHT22;24727;51.974;20.868;2022-07-18T07:00:47;17.80;1.00
38938;DHT22;24727;51.974;20.868;2022-07-18T07:03:13;17.80;1.00
38938;DHT22;24727;51.974;20.868;2022-07-18T07:05:39;17.90;1.00
38938;DHT22;24727;51.974;20.868;2022-07-18T07:08:05;17.80;1.00
38938;DHT22;24727;51.974;20.868;2022-07-18T07:10:31;17.80;1.00
38938;DHT22;24727;51.974;20.868;2022-07-18T07:12:57;17.90;1.00
38938;DHT22;24727;51.974;20.868;2022-07-18T07:15:24;18.10;1.00
38938;DHT22;24727;51.974;20.868;2022-07-18T07:18:02;18.00;1.00
38938;DHT22;24727;51.974;20.868;2022-07-18T07:20:29;17.90;1.00
38938;DHT22;24727;51.974;20.868;2022-07-18T07:22:57;17.80;1.00
38938;DHT22;24727;51.974;20.868;2022-07-18T07:25:24;17.80;1.00
38938;DHT22;24727;51.974;20.868;2022-07-18T07:27:52;17.90;1.00
38938;DHT22;24727;51.974;20.868;2022-07-18T07:30:20;17.90;1.00
38938;DHT22;24727;51.974;20.868;2022-07-18T07:32:47;17.90;1.00
38938;DHT22;24727;51.974;20.868;2022-07-18T07:35:16;18.10;1.00
38938;DHT22;24727;51.974;20.868;2022-07-18T07:37:46;18.30;1.00
38938;DHT22;24727;51.974;20.868;2022-07-18T07:40:14;18.50;1.00
38938;DHT22;24727;51.974;20.868;2022-07-18T07:42:42;18.60;1.00
38938;DHT22;24727;51.974;20.868;2022-07-18T07:45:09;18.70;1.00
38938;DHT22;24727;51.974;20.868;2022-07-18T07:47:36;18.80;1.00
38938;DHT22;24727;51.974;20.868;2022-07-18T07:50:04;18.70;1.00
38938;DHT22;24727;51.974;20.868;2022-07-18T07:52:31;18.70;1.00
38938;DHT22;24727;51.974;20.868;2022-07-18T07:54:58;18.60;1.00
38938;DHT22;24727;51.974;20.868;2022-07-18T07:57:24;18.70;1.00
38938;DHT22;24727;51.974;20.868;2022-07-18T07:59:52;18.70;1.00
38938;DHT22;24727;51.974;20.868;2022-07-18T08:02:18;18.60;1.00
38938;DHT22;24727;51.974;20.868;2022-07-18T08:04:45;18.80;1.00
38938;DHT22;24727;51.974;20.868;2022-07-18T08:07:12;18.90;1.00
38938;DHT22;24727;51.974;20.868;2022-07-18T08:09:39;18.90;1.00
38938;DHT22;24727;51.974;20.868;2022-07-18T08:12:05;18.80;1.00
38938;DHT22;24727;51.974;20.868;2022-07-18T08:14:31;18.80;1.00
38938;DHT22;24727;51.974;20.868;2022-07-18T08:16:59;19.00;1.00
38938;DHT22;24727;51.974;20.868;2022-07-18T08:19:26;19.10;1.00
38938;DHT22;24727;51.974;20.868;2022-07-18T08:21:52;19.20;1.00
38938;DHT22;24727;51.974;20.868;2022-07-18T08:24:18;19.60;1.00
38938;DHT22;24727;51.974;20.868;2022-07-18T08:26:45;19.70;1.00
38938;DHT22;24727;51.974;20.868;2022-07-18T08:29:18;19.40;1.00
38938;DHT22;24727;51.974;20.868;2022-07-18T08:31:44;19.20;1.00
38938;DHT22;24727;51.974;20.868;2022-07-18T08:34:10;19.10;1.00
38938;DHT22;24727;51.974;20.868;2022-07-18T08:36:36;19.10;1.00
38938;DHT22;24727;51.974;20.868;2022-07-18T08:39:02;19.30;1.00
38938;DHT22;24727;51.974;20.868;2022-07-18T08:41:28;19.30;1.00
38938;DHT22;24727;51.974;20.868;2022-07-18T08:43:55;19.30;1.00
38938;DHT22;24727;51.974;20.868;2022-07-18T08:46:21;19.30;1.00
38938;DHT22;24727;51.974;20.868;2022-07-18T08:48:49;19.30;1.00
38938;DHT22;24727;51.974;20.868;2022-07-18T08:51:18;19.30;1.00
38938;DHT22;24727;51.974;20.868;2022-07-18T08:53:46;19.30;1.00
38938;DHT22;24727;51.974;20.868;2022-07-18T08:56:13;19.40;1.00
38938;DHT22;24727;51.974;20.868;2022-07-18T08:58:39;19.40;1.00
38938;DHT22;24727;51.974;20.868;2022-07-18T09:01:05;19.40;1.00
38938;DHT22;24727;51.974;20.868;2022-07-18T09:03:33;19.20;1.00
38938;DHT22;24727;51.974;20.868;2022-07-18T09:06:13;19.20;1.00
38938;DHT22;24727;51.974;20.868;2022-07-18T09:08:58;19.40;1.00
38938;DHT22;24727;51.974;20.868;2022-07-18T09:11:25;19.60;1.00
38938;DHT22;24727;51.974;20.868;2022-07-18T09:13:51;19.80;1.00
38938;DHT22;24727;51.974;20.868;2022-07-18T09:16:17;20.10;1.00
38938;DHT22;24727;51.974;20.868;2022-07-18T09:18:48;20.10;1.00
38938;DHT22;24727;51.974;20.868;2022-07-18T09:21:20;20.10;1.00
38938;DHT22;24727;51.974;20.868;2022-07-18T09:23:49;20.40;1.00
38938;DHT22;24727;51.974;20.868;2022-07-18T09:26:41;20.60;1.00
38938;DHT22;24727;51.974;20.868;2022-07-18T09:29:08;20.70;1.00
38938;DHT22;24727;51.974;20.868;2022-07-18T09:31:34;20.80;1.00
38938;DHT22;24727;51.974;20.868;2022-07-18T09:34:02;20.70;1.00
38938;DHT22;24727;51.974;20.868;2022-07-18T09:36:29;20.70;1.00
38938;DHT22;24727;51.974;20.868;2022-07-18T09:38:59;21.00;1.00
38938;DHT22;24727;51.974;20.868;2022-07-18T09:41:27;20.90;1.00
38938;DHT22;24727;51.974;20.868;2022-07-18T09:43:53;21.00;1.00
38938;DHT22;24727;51.974;20.868;2022-07-18T09:46:19;21.00;1.00
38938;DHT22;24727;51.974;20.868;2022-07-18T09:48:45;21.10;1.00
38938;DHT22;24727;51.974;20.868;2022-07-18T09:51:11;20.80;1.00
38938;DHT22;24727;51.974;20.868;2022-07-18T09:53:42;21.10;1.00
38938;DHT22;24727;51.974;20.868;2022-07-18T09:58:37;21.40;1.00
38938;DHT22;24727;51.974;20.868;2022-07-18T10:01:05;21.70;1.00
38938;DHT22;24727;51.974;20.868;2022-07-18T10:03:31;21.70;1.00
38938;DHT22;24727;51.974;20.868;2022-07-18T10:05:58;21.70;1.00
38938;DHT22;24727;51.974;20.868;2022-07-18T10:08:30;21.90;1.00
38938;DHT22;24727;51.974;20.868;2022-07-18T10:10:58;21.90;1.00
38938;DHT22;24727;51.974;20.868;2022-07-18T10:13:26;22.20;1.00
38938;DHT22;24727;51.974;20.868;2022-07-18T10:15:52;21.90;1.00
38938;DHT22;24727;51.974;20.868;2022-07-18T10:18:27;22.30;1.00
38938;DHT22;24727;51.974;20.868;2022-07-18T10:23:54;21.60;1.00
38938;DHT22;24727;51.974;20.868;2022-07-18T10:26:23;21.80;1.00
38938;DHT22;24727;51.974;20.868;2022-07-18T10:31:33;21.80;1.00
38938;DHT22;24727;51.974;20.868;2022-07-18T10:34:10;21.80;1.00
38938;DHT22;24727;51.974;20.868;2022-07-18T10:39:37;22.30;1.00
38938;DHT22;24727;51.974;20.868;2022-07-18T10:44:36;23.80;1.00
38938;DHT22;24727;51.974;20.868;2022-07-18T10:57:41;22.80;1.00
38938;DHT22;24727;51.974;20.868;2022-07-18T11:00:16;22.60;1.00
38938;DHT22;24727;51.974;20.868;2022-07-18T11:02:43;22.60;1.00
38938;DHT22;24727;51.974;20.868;2022-07-18T11:21:17;22.20;1.00
38938;DHT22;24727;51.974;20.868;2022-07-18T11:23:48;21.80;1.00
38938;DHT22;24727;51.974;20.868;2022-07-18T11:26:17;21.90;1.00
38938;DHT22;24727;51.974;20.868;2022-07-18T11:28:46;22.10;1.00
38938;DHT22;24727;51.974;20.868;2022-07-18T11:31:16;21.90;1.00
38938;DHT22;24727;51.974;20.868;2022-07-18T11:33:48;22.40;1.00
38938;DHT22;24727;51.974;20.868;2022-07-18T11:36:16;22.40;1.00
38938;DHT22;24727;51.974;20.868;2022-07-18T11:38:51;22.00;1.00
38938;DHT22;24727;51.974;20.868;2022-07-18T11:41:19;21.90;1.00
38938;DHT22;24727;51.974;20.868;2022-07-18T11:43:46;21.80;1.00
38938;DHT22;24727;51.974;20.868;2022-07-18T11:46:14;21.50;1.00
38938;DHT22;24727;51.974;20.868;2022-07-18T11:48:42;21.50;1.00
38938;DHT22;24727;51.974;20.868;2022-07-18T11:51:10;21.80;1.00
38938;DHT22;24727;51.974;20.868;2022-07-18T11:53:47;22.60;1.00
38938;DHT22;24727;51.974;20.868;2022-07-18T11:56:16;22.20;1.00
38938;DHT22;24727;51.974;20.868;2022-07-18T11:58:44;22.10;1.00
38938;DHT22;24727;51.974;20.868;2022-07-18T12:01:12;22.40;1.00
38938;DHT22;24727;51.974;20.868;2022-07-18T12:03:56;23.00;1.00
38938;DHT22;24727;51.974;20.868;2022-07-18T12:06:23;22.60;1.00
38938;DHT22;24727;51.974;20.868;2022-07-18T12:08:54;22.50;1.00
38938;DHT22;24727;51.974;20.868;2022-07-18T12:11:31;22.50;1.00
38938;DHT22;24727;51.974;20.868;2022-07-18T12:16:48;22.70;1.00
38938;DHT22;24727;51.974;20.868;2022-07-18T12:19:19;22.50;1.00
38938;DHT22;24727;51.974;20.868;2022-07-18T12:24:33;22.80;1.00
38938;DHT22;24727;51.974;20.868;2022-07-18T12:27:20;23.40;1.00
38938;DHT22;24727;51.974;20.868;2022-07-18T12:30:12;24.80;1.00
38938;DHT22;24727;51.974;20.868;2022-07-18T12:32:56;24.20;1.00
38938;DHT22;24727;51.974;20.868;2022-07-18T12:35:26;23.50;1.00
38938;DHT22;24727;51.974;20.868;2022-07-18T12:37:55;23.30;1.00
38938;DHT22;24727;51.974;20.868;2022-07-18T12:40:23;23.20;1.00
38938;DHT22;24727;51.974;20.868;2022-07-18T12:42:56;22.50;1.00
38938;DHT22;24727;51.974;20.868;2022-07-18T12:45:27;22.20;1.00
38938;DHT22;24727;51.974;20.868;2022-07-18T12:47:53;22.10;1.00
38938;DHT22;24727;51.974;20.868;2022-07-18T12:50:19;22.20;1.00
38938;DHT22;24727;51.974;20.868;2022-07-18T12:52:45;22.10;1.00
38938;DHT22;24727;51.974;20.868;2022-07-18T12:55:12;22.20;1.00
38938;DHT22;24727;51.974;20.868;2022-07-18T12:57:38;22.30;1.00
38938;DHT22;24727;51.974;20.868;2022-07-18T13:00:05;22.50;1.00
38938;DHT22;24727;51.974;20.868;2022-07-18T13:02:31;22.50;1.00
38938;DHT22;24727;51.974;20.868;2022-07-18T13:04:57;23.00;1.00
38938;DHT22;24727;51.974;20.868;2022-07-18T13:07:30;22.60;1.00
38938;DHT22;24727;51.974;20.868;2022-07-18T13:09:57;22.60;1.00
38938;DHT22;24727;51.974;20.868;2022-07-18T13:12:23;22.70;1.00
38938;DHT22;24727;51.974;20.868;2022-07-18T13:14:50;22.70;1.00
38938;DHT22;24727;51.974;20.868;2022-07-18T13:17:16;22.70;1.00
38938;DHT22;24727;51.974;20.868;2022-07-18T13:19:43;22.70;1.00
38938;DHT22;24727;51.974;20.868;2022-07-18T13:22:11;22.80;1.00
38938;DHT22;24727;51.974;20.868;2022-07-18T13:24:38;22.80;1.00
38938;DHT22;24727;51.974;20.868;2022-07-18T13:27:04;22.80;1.00
38938;DHT22;24727;51.974;20.868;2022-07-18T13:29:30;22.70;1.00
38938;DHT22;24727;51.974;20.868;2022-07-18T13:31:57;22.50;1.00
38938;DHT22;24727;51.974;20.868;2022-07-18T13:34:23;22.50;1.00
38938;DHT22;24727;51.974;20.868;2022-07-18T13:36:50;22.50;1.00
38938;DHT22;24727;51.974;20.868;2022-07-18T13:39:19;22.60;1.00
38938;DHT22;24727;51.974;20.868;2022-07-18T13:41:46;22.70;1.00
38938;DHT22;24727;51.974;20.868;2022-07-18T13:44:12;22.80;1.00
38938;DHT22;24727;51.974;20.868;2022-07-18T13:46:38;22.70;1.00
38938;DHT22;24727;51.974;20.868;2022-07-18T13:49:12;22.90;1.00
38938;DHT22;24727;51.974;20.868;2022-07-18T13:51:38;23.00;1.00
38938;DHT22;24727;51.974;20.868;2022-07-18T13:54:05;23.00;1.00
38938;DHT22;24727;51.974;20.868;2022-07-18T13:56:33;22.80;1.00
38938;DHT22;24727;51.974;20.868;2022-07-18T13:58:59;22.70;1.00
38938;DHT22;24727;51.974;20.868;2022-07-18T14:01:26;22.50;1.00
38938;DHT22;24727;51.974;20.868;2022-07-18T14:03:54;22.60;1.00
38938;DHT22;24727;51.974;20.868;2022-07-18T14:06:20;22.50;1.00
38938;DHT22;24727;51.974;20.868;2022-07-18T14:08:46;22.40;1.00
38938;DHT22;24727;51.974;20.868;2022-07-18T14:11:12;22.50;1.00
38938;DHT22;24727;51.974;20.868;2022-07-18T14:13:38;22.70;1.00
38938;DHT22;24727;51.974;20.868;2022-07-18T14:16:05;23.20;1.00
38938;DHT22;24727;51.974;20.868;2022-07-18T14:18:31;22.90;1.00
38938;DHT22;24727;51.974;20.868;2022-07-18T14:20:57;22.90;1.00
38938;DHT22;24727;51.974;20.868;2022-07-18T14:23:23;22.90;1.00
38938;DHT22;24727;51.974;20.868;2022-07-18T14:25:49;22.80;1.00
38938;DHT22;24727;51.974;20.868;2022-07-18T14:28:15;22.80;1.00
38938;DHT22;24727;51.974;20.868;2022-07-18T14:30:41;22.90;1.00
38938;DHT22;24727;51.974;20.868;2022-07-18T14:33:07;22.90;1.00
38938;DHT22;24727;51.974;20.868;2022-07-18T14:35:33;22.80;1.00
38938;DHT22;24727;51.974;20.868;2022-07-18T14:38:01;22.80;1.00
38938;DHT22;24727;51.974;20.868;2022-07-18T14:40:29;22.50;1.00
38938;DHT22;24727;51.974;20.868;2022-07-18T14:42:55;22.40;1.00
38938;DHT22;24727;51.974;20.868;2022-07-18T14:45:21;22.30;1.00
38938;DHT22;24727;51.974;20.868;2022-07-18T14:47:47;22.50;1.00
38938;DHT22;24727;51.974;20.868;2022-07-18T14:50:14;22.70;1.00
38938;DHT22;24727;51.974;20.868;2022-07-18T14:52:41;22.80;1.00
38938;DHT22;24727;51.974;20.868;2022-07-18T14:55:08;22.80;1.00
38938;DHT22;24727;51.974;20.868;2022-07-18T14:57:35;22.80;1.00
38938;DHT22;24727;51.974;20.868;2022-07-18T15:00:06;22.80;1.00
38938;DHT22;24727;51.974;20.868;2022-07-18T15:02:40;22.90;1.00
38938;DHT22;24727;51.974;20.868;2022-07-18T15:05:09;23.10;1.00
38938;DHT22;24727;51.974;20.868;2022-07-18T15:07:35;23.20;1.00
38938;DHT22;24727;51.974;20.868;2022-07-18T15:10:02;23.20;1.00
38938;DHT22;24727;51.974;20.868;2022-07-18T15:12:28;23.30;1.00
38938;DHT22;24727;51.974;20.868;2022-07-18T15:14:54;23.30;1.00
38938;DHT22;24727;51.974;20.868;2022-07-18T15:17:22;23.20;1.00
38938;DHT22;24727;51.974;20.868;2022-07-18T15:19:48;23.20;1.00
38938;DHT22;24727;51.974;20.868;2022-07-18T15:22:14;23.10;1.00
38938;DHT22;24727;51.974;20.868;2022-07-18T15:24:41;22.90;1.00
38938;DHT22;24727;51.974;20.868;2022-07-18T15:27:07;22.80;1.00
38938;DHT22;24727;51.974;20.868;2022-07-18T15:29:32;22.80;1.00
38938;DHT22;24727;51.974;20.868;2022-07-18T15:31:58;22.70;1.00
38938;DHT22;24727;51.974;20.868;2022-07-18T15:34:25;22.70;1.00
38938;DHT22;24727;51.974;20.868;2022-07-18T15:36:51;22.80;1.00
38938;DHT22;24727;51.974;20.868;2022-07-18T15:39:17;22.70;1.00
38938;DHT22;24727;51.974;20.868;2022-07-18T15:41:43;22.60;1.00
38938;DHT22;24727;51.974;20.868;2022-07-18T15:44:10;22.40;1.00
38938;DHT22;24727;51.974;20.868;2022-07-18T15:46:37;22.60;1.00
38938;DHT22;24727;51.974;20.868;2022-07-18T15:49:04;22.60;1.00
38938;DHT22;24727;51.974;20.868;2022-07-18T15:51:30;22.70;1.00
38938;DHT22;24727;51.974;20.868;2022-07-18T15:53:57;22.80;1.00
38938;DHT22;24727;51.974;20.868;2022-07-18T15:56:23;22.80;1.00
38938;DHT22;24727;51.974;20.868;2022-07-18T15:58:49;22.80;1.00
38938;DHT22;24727;51.974;20.868;2022-07-18T16:01:16;22.90;1.00
38938;DHT22;24727;51.974;20.868;2022-07-18T16:03:42;22.90;1.00
38938;DHT22;24727;51.974;20.868;2022-07-18T16:06:08;22.90;1.00
38938;DHT22;24727;51.974;20.868;2022-07-18T16:08:34;23.00;1.00
38938;DHT22;24727;51.974;20.868;2022-07-18T16:11:00;22.90;1.00
38938;DHT22;24727;51.974;20.868;2022-07-18T16:13:26;22.90;1.00
38938;DHT22;24727;51.974;20.868;2022-07-18T16:15:54;22.80;1.00
38938;DHT22;24727;51.974;20.868;2022-07-18T16:18:21;22.80;1.00